sensor_id;sensor_type;location;lat;lon;timestamp;pressure;altitude;pressure_sealevel;temperature;humidity
64687;BME280;51113;53.646;-113.674;2022-07-03T00:01:50;93932.53;;;13.12;86.32
64687;BME280;51113;53.646;-113.674;2022-07-03T00:04:19;93923.78;;;13.17;85.41
64687;BME280;51113;53.646;-113.674;2022-07-03T00:06:48;93927.41;;;13.06;82.79
64687;BME280;51113;53.646;-113.674;2022-07-03T00:09:18;93915.25;;;12.93;83.96
64687;BME280;51113;53.646;-113.674;2022-07-03T00:11:47;93920.03;;;12.91;85.43
64687;BME280;51113;53.646;-113.674;2022-07-03T00:14:16;93923.38;;;13.03;85.76
64687;BME280;51113;53.646;-113.674;2022-07-03T00:16:45;93913.28;;;13.05;83.97
64687;BME280;51113;53.646;-113.674;2022-07-03T00:19:14;93920.69;;;13.30;84.33
64687;BME280;51113;53.646;-113.674;2022-07-03T00:21:51;93920.16;;;13.28;83.31
64687;BME280;51113;53.646;-113.674;2022-07-03T00:24:25;93918.13;;;13.45;82.90
64687;BME280;51113;53.646;-113.674;2022-07-03T00:26:58;93908.19;;;13.73;82.43
64687;BME280;51113;53.646;-113.674;2022-07-03T00:29:31;93906.72;;;13.55;81.90
64687;BME280;51113;53.646;-113.674;2022-07-03T00:32:01;93900.84;;;13.53;81.78
64687;BME280;51113;53.646;-113.674;2022-07-03T00:34:31;93905.34;;;13.15;82.69
64687;BME280;51113;53.646;-113.674;2022-07-03T00:37:00;93913.47;;;13.26;81.87
64687;BME280;51113;53.646;-113.674;2022-07-03T00:39:41;93906.66;;;13.13;84.12
64687;BME280;51113;53.646;-113.674;2022-07-03T00:42:13;93920.09;;;12.96;84.40
64687;BME280;51113;53.646;-113.674;2022-07-03T00:44:52;93907.31;;;12.98;84.43
64687;BME280;51113;53.646;-113.674;2022-07-03T00:47:23;93917.03;;;13.09;86.15
64687;BME280;51113;53.646;-113.674;2022-07-03T00:49:55;93914.63;;;13.08;85.65
64687;BME280;51113;53.646;-113.674;2022-07-03T00:52:28;93913.16;;;12.95;84.28
64687;BME280;51113;53.646;-113.674;2022-07-03T00:54:59;93907.78;;;12.90;84.66
64687;BME280;51113;53.646;-113.674;2022-07-03T00:57:30;93905.81;;;12.80;83.91
64687;BME280;51113;53.646;-113.674;2022-07-03T00:59:59;93910.91;;;12.82;83.18
64687;BME280;51113;53.646;-113.674;2022-07-03T01:05:12;93909.69;;;12.68;85.69
64687;BME280;51113;53.646;-113.674;2022-07-03T01:13:46;93907.59;;;12.70;83.91
64687;BME280;51113;53.646;-113.674;2022-07-03T01:16:31;93896.41;;;12.73;85.77
64687;BME280;51113;53.646;-113.674;2022-07-03T01:19:35;93894.22;;;12.65;86.17
64687;BME280;51113;53.646;-113.674;2022-07-03T01:22:44;93902.75;;;12.67;85.56
64687;BME280;51113;53.646;-113.674;2022-07-03T01:30:32;93905.78;;;12.75;86.42
64687;BME280;51113;53.646;-113.674;2022-07-03T01:33:08;93903.09;;;12.75;84.13
64687;BME280;51113;53.646;-113.674;2022-07-03T01:38:31;93904.88;;;12.65;85.04
64687;BME280;51113;53.646;-113.674;2022-07-03T01:41:02;93902.66;;;12.56;84.37
64687;BME280;51113;53.646;-113.674;2022-07-03T01:43:33;93903.31;;;12.69;85.11
64687;BME280;51113;53.646;-113.674;2022-07-03T01:46:03;93896.47;;;12.78;85.25
64687;BME280;51113;53.646;-113.674;2022-07-03T01:48:33;93904.75;;;12.81;85.79
64687;BME280;51113;53.646;-113.674;2022-07-03T01:51:02;93903.41;;;12.79;84.89
64687;BME280;51113;53.646;-113.674;2022-07-03T01:53:32;93894.09;;;12.81;84.44
64687;BME280;51113;53.646;-113.674;2022-07-03T01:56:02;93898.13;;;12.84;85.17
64687;BME280;51113;53.646;-113.674;2022-07-03T01:58:32;93900.06;;;12.94;85.86
64687;BME280;51113;53.646;-113.674;2022-07-03T02:01:15;93903.66;;;13.04;83.90
64687;BME280;51113;53.646;-113.674;2022-07-03T02:04:08;93908.03;;;13.15;83.66
64687;BME280;51113;53.646;-113.674;2022-07-03T02:06:56;93897.31;;;13.42;82.81
64687;BME280;51113;53.646;-113.674;2022-07-03T02:09:44;93893.84;;;13.42;81.47
64687;BME280;51113;53.646;-113.674;2022-07-03T02:12:18;93893.09;;;13.51;81.04
64687;BME280;51113;53.646;-113.674;2022-07-03T02:15:08;93901.25;;;13.77;81.50
64687;BME280;51113;53.646;-113.674;2022-07-03T02:17:43;93884.88;;;13.58;81.75
64687;BME280;51113;53.646;-113.674;2022-07-03T02:20:16;93884.47;;;13.81;81.64
64687;BME280;51113;53.646;-113.674;2022-07-03T02:22:52;93889.06;;;13.96;79.05
64687;BME280;51113;53.646;-113.674;2022-07-03T02:25:26;93882.13;;;13.95;77.31
64687;BME280;51113;53.646;-113.674;2022-07-03T02:28:06;93885.91;;;14.04;75.68
64687;BME280;51113;53.646;-113.674;2022-07-03T02:30:43;93878.97;;;14.03;75.73
64687;BME280;51113;53.646;-113.674;2022-07-03T02:33:19;93887.13;;;13.81;76.67
64687;BME280;51113;53.646;-113.674;2022-07-03T02:35:53;93881.94;;;13.60;78.53
64687;BME280;51113;53.646;-113.674;2022-07-03T02:38:23;93885.50;;;13.33;81.05
64687;BME280;51113;53.646;-113.674;2022-07-03T02:52:44;93880.22;;;12.79;83.63
64687;BME280;51113;53.646;-113.674;2022-07-03T02:55:45;93880.13;;;12.69;85.90
64687;BME280;51113;53.646;-113.674;2022-07-03T03:03:33;93875.81;;;12.36;87.20
64687;BME280;51113;53.646;-113.674;2022-07-03T03:06:08;93874.41;;;12.29;86.17
64687;BME280;51113;53.646;-113.674;2022-07-03T03:08:47;93877.06;;;12.29;87.20
64687;BME280;51113;53.646;-113.674;2022-07-03T03:11:40;93894.28;;;12.21;87.38
64687;BME280;51113;53.646;-113.674;2022-07-03T03:14:15;93886.69;;;12.08;87.75
64687;BME280;51113;53.646;-113.674;2022-07-03T03:16:52;93871.63;;;11.97;88.20
64687;BME280;51113;53.646;-113.674;2022-07-03T03:19:22;93886.69;;;11.86;89.13
64687;BME280;51113;53.646;-113.674;2022-07-03T03:24:20;93871.47;;;11.65;89.95
64687;BME280;51113;53.646;-113.674;2022-07-03T03:26:50;93873.03;;;11.60;89.72
64687;BME280;51113;53.646;-113.674;2022-07-03T03:29:19;93884.97;;;11.58;90.88
64687;BME280;51113;53.646;-113.674;2022-07-03T03:31:47;93883.03;;;11.53;91.08
64687;BME280;51113;53.646;-113.674;2022-07-03T03:34:17;93882.91;;;11.43;91.46
64687;BME280;51113;53.646;-113.674;2022-07-03T03:36:46;93879.34;;;11.38;91.64
64687;BME280;51113;53.646;-113.674;2022-07-03T03:39:15;93883.41;;;11.23;92.66
64687;BME280;51113;53.646;-113.674;2022-07-03T03:41:45;93873.44;;;11.14;92.85
64687;BME280;51113;53.646;-113.674;2022-07-03T03:44:13;93874.16;;;11.09;93.04
64687;BME280;51113;53.646;-113.674;2022-07-03T03:46:42;93870.22;;;10.95;92.42
64687;BME280;51113;53.646;-113.674;2022-07-03T03:49:11;93868.84;;;10.92;93.24
64687;BME280;51113;53.646;-113.674;2022-07-03T03:51:39;93873.69;;;10.95;93.06
64687;BME280;51113;53.646;-113.674;2022-07-03T03:54:09;93886.31;;;10.88;93.18
64687;BME280;51113;53.646;-113.674;2022-07-03T03:56:38;93890.66;;;10.94;92.88
64687;BME280;51113;53.646;-113.674;2022-07-03T03:59:06;93888.09;;;10.83;93.46
64687;BME280;51113;53.646;-113.674;2022-07-03T04:01:35;93886.63;;;10.75;94.43
64687;BME280;51113;53.646;-113.674;2022-07-03T04:04:03;93891.94;;;10.58;94.71
64687;BME280;51113;53.646;-113.674;2022-07-03T04:06:32;93895.78;;;10.51;95.08
64687;BME280;51113;53.646;-113.674;2022-07-03T04:09:01;93894.09;;;10.33;95.73
64687;BME280;51113;53.646;-113.674;2022-07-03T04:11:29;93905.44;;;10.17;96.23
64687;BME280;51113;53.646;-113.674;2022-07-03T04:13:59;93900.84;;;10.12;97.26
64687;BME280;51113;53.646;-113.674;2022-07-03T04:16:28;93903.53;;;10.00;97.68
64687;BME280;51113;53.646;-113.674;2022-07-03T04:18:57;93896.41;;;9.89;98.20
64687;BME280;51113;53.646;-113.674;2022-07-03T04:21:25;93899.31;;;9.88;98.36
64687;BME280;51113;53.646;-113.674;2022-07-03T04:23:54;93897.09;;;9.96;98.09
64687;BME280;51113;53.646;-113.674;2022-07-03T04:26:23;93904.41;;;9.78;98.31
64687;BME280;51113;53.646;-113.674;2022-07-03T04:28:51;93905.47;;;9.65;98.81
64687;BME280;51113;53.646;-113.674;2022-07-03T04:31:21;93905.47;;;9.65;99.00
64687;BME280;51113;53.646;-113.674;2022-07-03T04:33:50;93900.75;;;9.55;99.54
64687;BME280;51113;53.646;-113.674;2022-07-03T04:36:19;93901.91;;;9.48;100.00
64687;BME280;51113;53.646;-113.674;2022-07-03T04:38:48;93901.69;;;9.49;100.00
64687;BME280;51113;53.646;-113.674;2022-07-03T04:41:17;93900.19;;;9.53;99.69
64687;BME280;51113;53.646;-113.674;2022-07-03T04:43:45;93911.59;;;9.54;99.39
64687;BME280;51113;53.646;-113.674;2022-07-03T04:46:15;93900.66;;;9.50;99.45
64687;BME280;51113;53.646;-113.674;2022-07-03T04:48:44;93910.56;;;9.43;99.12
64687;BME280;51113;53.646;-113.674;2022-07-03T04:51:14;93900.06;;;9.48;98.80
64687;BME280;51113;53.646;-113.674;2022-07-03T04:53:42;93896.63;;;9.36;98.58
64687;BME280;51113;53.646;-113.674;2022-07-03T04:56:11;93896.28;;;9.44;98.65
64687;BME280;51113;53.646;-113.674;2022-07-03T04:58:39;93904.56;;;9.36;98.61
64687;BME280;51113;53.646;-113.674;2022-07-03T05:01:08;93902.97;;;9.23;98.64
64687;BME280;51113;53.646;-113.674;2022-07-03T05:03:36;93905.72;;;9.05;99.01
64687;BME280;51113;53.646;-113.674;2022-07-03T05:06:05;93899.63;;;9.05;99.74
64687;BME280;51113;53.646;-113.674;2022-07-03T05:08:34;93892.69;;;8.92;99.75
64687;BME280;51113;53.646;-113.674;2022-07-03T05:11:03;93893.97;;;8.89;99.82
64687;BME280;51113;53.646;-113.674;2022-07-03T05:13:32;93888.91;;;8.88;100.00
64687;BME280;51113;53.646;-113.674;2022-07-03T05:16:00;93887.38;;;8.80;99.95
64687;BME280;51113;53.646;-113.674;2022-07-03T05:18:30;93887.28;;;8.75;100.00
64687;BME280;51113;53.646;-113.674;2022-07-03T05:20:59;93889.22;;;8.68;100.00
64687;BME280;51113;53.646;-113.674;2022-07-03T05:23:28;93883.22;;;8.61;100.00
64687;BME280;51113;53.646;-113.674;2022-07-03T05:25:57;93881.81;;;8.58;100.00
64687;BME280;51113;53.646;-113.674;2022-07-03T05:28:27;93882.88;;;8.57;100.00
64687;BME280;51113;53.646;-113.674;2022-07-03T05:30:55;93873.31;;;8.56;100.00
64687;BME280;51113;53.646;-113.674;2022-07-03T05:33:24;93883.41;;;8.48;100.00
64687;BME280;51113;53.646;-113.674;2022-07-03T05:35:55;93878.69;;;8.38;100.00
64687;BME280;51113;53.646;-113.674;2022-07-03T05:38:24;93875.91;;;8.33;100.00
64687;BME280;51113;53.646;-113.674;2022-07-03T05:41:12;93883.22;;;8.31;100.00
64687;BME280;51113;53.646;-113.674;2022-07-03T05:43:42;93875.59;;;8.23;100.00
64687;BME280;51113;53.646;-113.674;2022-07-03T05:46:10;93879.88;;;8.24;100.00
64687;BME280;51113;53.646;-113.674;2022-07-03T05:48:39;93884.81;;;8.20;100.00
64687;BME280;51113;53.646;-113.674;2022-07-03T05:51:08;93879.16;;;8.17;100.00
64687;BME280;51113;53.646;-113.674;2022-07-03T05:53:37;93883.84;;;8.15;100.00
64687;BME280;51113;53.646;-113.674;2022-07-03T05:56:05;93886.59;;;8.08;100.00
64687;BME280;51113;53.646;-113.674;2022-07-03T05:58:34;93886.25;;;8.04;100.00
64687;BME280;51113;53.646;-113.674;2022-07-03T06:01:02;93884.94;;;7.95;100.00
64687;BME280;51113;53.646;-113.674;2022-07-03T06:03:31;93878.91;;;7.88;100.00
64687;BME280;51113;53.646;-113.674;2022-07-03T06:06:01;93887.88;;;7.87;100.00
64687;BME280;51113;53.646;-113.674;2022-07-03T06:08:30;93887.88;;;7.87;100.00
64687;BME280;51113;53.646;-113.674;2022-07-03T06:10:59;93894.66;;;7.83;100.00
64687;BME280;51113;53.646;-113.674;2022-07-03T06:13:29;93900.97;;;7.82;100.00
64687;BME280;51113;53.646;-113.674;2022-07-03T06:15:57;93897.19;;;7.71;100.00
64687;BME280;51113;53.646;-113.674;2022-07-03T06:18:27;93899.19;;;7.76;100.00
64687;BME280;51113;53.646;-113.674;2022-07-03T06:20:56;93901.00;;;7.75;100.00
64687;BME280;51113;53.646;-113.674;2022-07-03T06:23:24;93902.84;;;7.75;100.00
64687;BME280;51113;53.646;-113.674;2022-07-03T06:26:15;93900.88;;;7.70;100.00
64687;BME280;51113;53.646;-113.674;2022-07-03T06:28:44;93912.69;;;7.68;100.00
64687;BME280;51113;53.646;-113.674;2022-07-03T06:31:13;93909.47;;;7.66;100.00
64687;BME280;51113;53.646;-113.674;2022-07-03T06:33:41;93903.59;;;7.64;100.00
64687;BME280;51113;53.646;-113.674;2022-07-03T06:36:10;93903.44;;;7.59;100.00
64687;BME280;51113;53.646;-113.674;2022-07-03T06:38:39;93898.25;;;7.52;100.00
64687;BME280;51113;53.646;-113.674;2022-07-03T06:41:08;93896.75;;;7.56;100.00
64687;BME280;51113;53.646;-113.674;2022-07-03T06:43:37;93906.09;;;7.59;100.00
64687;BME280;51113;53.646;-113.674;2022-07-03T06:46:06;93907.78;;;7.53;100.00
64687;BME280;51113;53.646;-113.674;2022-07-03T06:48:35;93898.69;;;7.49;100.00
64687;BME280;51113;53.646;-113.674;2022-07-03T06:51:04;93905.88;;;7.42;100.00
64687;BME280;51113;53.646;-113.674;2022-07-03T06:53:34;93899.56;;;7.43;100.00
64687;BME280;51113;53.646;-113.674;2022-07-03T06:56:04;93902.78;;;7.63;100.00
64687;BME280;51113;53.646;-113.674;2022-07-03T06:58:33;93913.22;;;7.58;100.00
64687;BME280;51113;53.646;-113.674;2022-07-03T07:01:02;93907.78;;;7.53;100.00
64687;BME280;51113;53.646;-113.674;2022-07-03T07:03:32;93924.00;;;7.57;100.00
64687;BME280;51113;53.646;-113.674;2022-07-03T07:06:00;93911.38;;;7.40;100.00
64687;BME280;51113;53.646;-113.674;2022-07-03T07:08:30;93914.53;;;7.31;100.00
64687;BME280;51113;53.646;-113.674;2022-07-03T07:10:58;93905.03;;;7.23;100.00
64687;BME280;51113;53.646;-113.674;2022-07-03T07:13:27;93915.81;;;7.03;100.00
64687;BME280;51113;53.646;-113.674;2022-07-03T07:15:56;93910.19;;;6.93;100.00
64687;BME280;51113;53.646;-113.674;2022-07-03T07:18:25;93906.31;;;6.96;100.00
64687;BME280;51113;53.646;-113.674;2022-07-03T07:20:54;93905.56;;;6.89;100.00
64687;BME280;51113;53.646;-113.674;2022-07-03T07:23:23;93909.13;;;7.01;100.00
64687;BME280;51113;53.646;-113.674;2022-07-03T07:25:52;93904.06;;;6.99;100.00
64687;BME280;51113;53.646;-113.674;2022-07-03T07:28:20;93907.41;;;6.88;100.00
64687;BME280;51113;53.646;-113.674;2022-07-03T07:30:49;93905.25;;;6.78;100.00
64687;BME280;51113;53.646;-113.674;2022-07-03T07:33:23;93908.47;;;6.81;100.00
64687;BME280;51113;53.646;-113.674;2022-07-03T07:35:52;93898.25;;;6.91;100.00
64687;BME280;51113;53.646;-113.674;2022-07-03T07:38:21;93897.75;;;6.75;100.00
64687;BME280;51113;53.646;-113.674;2022-07-03T07:40:49;93912.34;;;6.78;100.00
64687;BME280;51113;53.646;-113.674;2022-07-03T07:43:18;93908.00;;;6.65;100.00
64687;BME280;51113;53.646;-113.674;2022-07-03T07:45:46;93909.78;;;6.71;100.00
64687;BME280;51113;53.646;-113.674;2022-07-03T07:48:16;93910.78;;;6.70;100.00
64687;BME280;51113;53.646;-113.674;2022-07-03T07:50:46;93911.66;;;6.64;100.00
64687;BME280;51113;53.646;-113.674;2022-07-03T07:53:15;93910.84;;;6.64;100.00
64687;BME280;51113;53.646;-113.674;2022-07-03T07:55:44;93913.75;;;6.56;100.00
64687;BME280;51113;53.646;-113.674;2022-07-03T07:58:12;93908.09;;;6.52;100.00
64687;BME280;51113;53.646;-113.674;2022-07-03T08:00:41;93913.75;;;6.56;100.00
64687;BME280;51113;53.646;-113.674;2022-07-03T08:03:30;93913.03;;;6.42;100.00
64687;BME280;51113;53.646;-113.674;2022-07-03T08:06:17;93905.53;;;6.07;100.00
64687;BME280;51113;53.646;-113.674;2022-07-03T08:08:46;93911.09;;;5.86;100.00
64687;BME280;51113;53.646;-113.674;2022-07-03T08:11:14;93912.78;;;5.74;100.00
64687;BME280;51113;53.646;-113.674;2022-07-03T08:13:43;93922.13;;;5.70;100.00
64687;BME280;51113;53.646;-113.674;2022-07-03T08:16:13;93913.38;;;5.76;100.00
64687;BME280;51113;53.646;-113.674;2022-07-03T08:18:42;93915.78;;;5.91;100.00
64687;BME280;51113;53.646;-113.674;2022-07-03T08:21:11;93907.56;;;6.05;100.00
64687;BME280;51113;53.646;-113.674;2022-07-03T08:23:39;93905.53;;;6.07;100.00
64687;BME280;51113;53.646;-113.674;2022-07-03T08:26:09;93913.84;;;6.11;100.00
64687;BME280;51113;53.646;-113.674;2022-07-03T08:28:37;93911.06;;;5.99;100.00
64687;BME280;51113;53.646;-113.674;2022-07-03T08:31:06;93912.31;;;5.90;100.00
64687;BME280;51113;53.646;-113.674;2022-07-03T08:33:34;93922.66;;;5.85;100.00
64687;BME280;51113;53.646;-113.674;2022-07-03T08:36:05;93919.81;;;5.93;100.00
64687;BME280;51113;53.646;-113.674;2022-07-03T08:38:34;93925.41;;;6.10;100.00
64687;BME280;51113;53.646;-113.674;2022-07-03T08:41:04;93923.25;;;5.87;100.00
64687;BME280;51113;53.646;-113.674;2022-07-03T08:43:33;93909.34;;;5.67;100.00
64687;BME280;51113;53.646;-113.674;2022-07-03T08:46:01;93912.03;;;5.54;100.00
64687;BME280;51113;53.646;-113.674;2022-07-03T08:48:33;93908.97;;;5.57;100.00
64687;BME280;51113;53.646;-113.674;2022-07-03T08:51:03;93908.56;;;5.60;100.00
64687;BME280;51113;53.646;-113.674;2022-07-03T08:53:32;93915.81;;;5.71;100.00
64687;BME280;51113;53.646;-113.674;2022-07-03T08:56:02;93917.22;;;5.73;100.00
64687;BME280;51113;53.646;-113.674;2022-07-03T08:58:32;93912.56;;;5.75;100.00
64687;BME280;51113;53.646;-113.674;2022-07-03T09:01:01;93905.69;;;5.68;100.00
64687;BME280;51113;53.646;-113.674;2022-07-03T09:03:31;93910.00;;;5.56;100.00
64687;BME280;51113;53.646;-113.674;2022-07-03T09:06:00;93908.59;;;5.53;100.00
64687;BME280;51113;53.646;-113.674;2022-07-03T09:08:30;93908.44;;;5.41;100.00
64687;BME280;51113;53.646;-113.674;2022-07-03T09:11:00;93909.59;;;5.59;100.00
64687;BME280;51113;53.646;-113.674;2022-07-03T09:13:30;93905.69;;;5.68;100.00
64687;BME280;51113;53.646;-113.674;2022-07-03T09:15:58;93913.53;;;5.88;100.00
64687;BME280;51113;53.646;-113.674;2022-07-03T09:18:41;93902.38;;;5.86;100.00
64687;BME280;51113;53.646;-113.674;2022-07-03T09:21:10;93902.38;;;5.86;100.00
64687;BME280;51113;53.646;-113.674;2022-07-03T09:23:41;63158.00;;;-144.54;100.00
64687;BME280;51113;53.646;-113.674;2022-07-03T09:26:17;93903.00;;;5.81;100.00
64687;BME280;51113;53.646;-113.674;2022-07-03T09:28:51;93899.44;;;5.62;100.00
64687;BME280;51113;53.646;-113.674;2022-07-03T09:31:21;93905.44;;;5.82;100.00
64687;BME280;51113;53.646;-113.674;2022-07-03T09:34:02;93908.31;;;5.74;100.00
64687;BME280;51113;53.646;-113.674;2022-07-03T09:39:27;93915.19;;;5.75;100.00
64687;BME280;51113;53.646;-113.674;2022-07-03T09:42:07;93907.28;;;5.75;100.00
64687;BME280;51113;53.646;-113.674;2022-07-03T09:44:40;93910.28;;;5.86;100.00
64687;BME280;51113;53.646;-113.674;2022-07-03T09:47:22;93899.53;;;5.87;100.00
64687;BME280;51113;53.646;-113.674;2022-07-03T09:49:59;93894.47;;;5.86;100.00
64687;BME280;51113;53.646;-113.674;2022-07-03T09:52:36;93901.34;;;5.93;100.00
64687;BME280;51113;53.646;-113.674;2022-07-03T10:00:25;93888.22;;;5.80;100.00
64687;BME280;51113;53.646;-113.674;2022-07-03T10:05:39;93880.38;;;5.67;100.00
64687;BME280;51113;53.646;-113.674;2022-07-03T10:08:12;93877.44;;;5.43;100.00
64687;BME280;51113;53.646;-113.674;2022-07-03T10:10:46;93870.16;;;5.39;100.00
64687;BME280;51113;53.646;-113.674;2022-07-03T10:13:16;93863.47;;;5.36;100.00
64687;BME280;51113;53.646;-113.674;2022-07-03T10:15:45;93862.03;;;5.40;100.00
64687;BME280;51113;53.646;-113.674;2022-07-03T10:18:14;93862.44;;;5.44;100.00
64687;BME280;51113;53.646;-113.674;2022-07-03T10:23:11;93855.56;;;5.36;100.00
64687;BME280;51113;53.646;-113.674;2022-07-03T10:25:41;93866.28;;;5.41;100.00
64687;BME280;51113;53.646;-113.674;2022-07-03T10:28:12;93863.06;;;5.39;100.00
64687;BME280;51113;53.646;-113.674;2022-07-03T10:30:44;93867.69;;;5.44;100.00
64687;BME280;51113;53.646;-113.674;2022-07-03T10:33:13;93863.41;;;5.49;100.00
64687;BME280;51113;53.646;-113.674;2022-07-03T10:35:44;93867.25;;;5.54;100.00
64687;BME280;51113;53.646;-113.674;2022-07-03T10:41:04;93862.72;;;5.23;100.00
64687;BME280;51113;53.646;-113.674;2022-07-03T10:43:58;93861.47;;;5.18;100.00
64687;BME280;51113;53.646;-113.674;2022-07-03T10:46:45;93857.22;;;5.24;100.00
64687;BME280;51113;53.646;-113.674;2022-07-03T10:49:14;93866.75;;;5.25;100.00
64687;BME280;51113;53.646;-113.674;2022-07-03T10:51:58;93866.34;;;5.28;100.00
64687;BME280;51113;53.646;-113.674;2022-07-03T10:54:32;63158.00;;;-144.54;100.00
64687;BME280;51113;53.646;-113.674;2022-07-03T11:15:36;63158.00;;;-144.54;100.00
64687;BME280;51113;53.646;-113.674;2022-07-03T11:18:20;63158.00;;;-144.54;100.00
64687;BME280;51113;53.646;-113.674;2022-07-03T11:41:30;93881.56;;;5.00;100.00
64687;BME280;51113;53.646;-113.674;2022-07-03T11:44:14;93875.09;;;4.89;100.00
64687;BME280;51113;53.646;-113.674;2022-07-03T11:46:47;93873.28;;;4.90;100.00
64687;BME280;51113;53.646;-113.674;2022-07-03T11:49:21;93871.47;;;4.90;100.00
64687;BME280;51113;53.646;-113.674;2022-07-03T11:52:02;93865.78;;;4.93;100.00
64687;BME280;51113;53.646;-113.674;2022-07-03T11:54:54;93872.63;;;5.07;100.00
64687;BME280;51113;53.646;-113.674;2022-07-03T11:57:23;93866.94;;;5.17;100.00
64687;BME280;51113;53.646;-113.674;2022-07-03T11:59:54;93871.00;;;5.26;100.00
64687;BME280;51113;53.646;-113.674;2022-07-03T12:02:31;93855.97;;;5.33;100.00
64687;BME280;51113;53.646;-113.674;2022-07-03T12:05:00;93866.97;;;5.24;100.00
64687;BME280;51113;53.646;-113.674;2022-07-03T12:07:29;93859.63;;;5.32;100.00
64687;BME280;51113;53.646;-113.674;2022-07-03T12:09:58;93855.97;;;5.40;100.00
64687;BME280;51113;53.646;-113.674;2022-07-03T12:12:26;93863.59;;;5.55;100.00
64687;BME280;51113;53.646;-113.674;2022-07-03T12:14:57;93851.16;;;5.75;100.00
64687;BME280;51113;53.646;-113.674;2022-07-03T12:17:26;63158.00;;;-144.54;100.00
64687;BME280;51113;53.646;-113.674;2022-07-03T12:19:58;93859.44;;;6.17;100.00
64687;BME280;51113;53.646;-113.674;2022-07-03T12:22:33;93857.88;;;6.09;100.00
64687;BME280;51113;53.646;-113.674;2022-07-03T12:25:09;93847.03;;;6.24;100.00
64687;BME280;51113;53.646;-113.674;2022-07-03T12:27:39;93850.56;;;6.36;100.00
64687;BME280;51113;53.646;-113.674;2022-07-03T12:30:21;93844.78;;;6.52;100.00
64687;BME280;51113;53.646;-113.674;2022-07-03T12:32:54;93843.41;;;6.68;100.00
64687;BME280;51113;53.646;-113.674;2022-07-03T12:35:25;93850.19;;;6.82;100.00
64687;BME280;51113;53.646;-113.674;2022-07-03T12:37:55;93838.63;;;7.01;100.00
64687;BME280;51113;53.646;-113.674;2022-07-03T12:40:24;93843.69;;;7.21;100.00
64687;BME280;51113;53.646;-113.674;2022-07-03T12:42:54;93842.38;;;7.30;100.00
64687;BME280;51113;53.646;-113.674;2022-07-03T12:45:28;93839.00;;;7.41;100.00
64687;BME280;51113;53.646;-113.674;2022-07-03T12:48:01;93845.00;;;7.49;100.00
64687;BME280;51113;53.646;-113.674;2022-07-03T12:50:52;93837.22;;;7.54;100.00
64687;BME280;51113;53.646;-113.674;2022-07-03T12:53:32;93834.13;;;7.57;100.00
64687;BME280;51113;53.646;-113.674;2022-07-03T12:56:03;93828.09;;;7.68;100.00
64687;BME280;51113;53.646;-113.674;2022-07-03T12:58:40;93824.22;;;7.70;100.00
64687;BME280;51113;53.646;-113.674;2022-07-03T13:01:33;93830.38;;;7.83;100.00
64687;BME280;51113;53.646;-113.674;2022-07-03T13:04:08;93834.19;;;7.87;100.00
64687;BME280;51113;53.646;-113.674;2022-07-03T13:06:37;93827.78;;;7.94;100.00
64687;BME280;51113;53.646;-113.674;2022-07-03T13:09:06;93827.59;;;8.07;100.00
64687;BME280;51113;53.646;-113.674;2022-07-03T13:11:37;93826.25;;;8.17;100.00
64687;BME280;51113;53.646;-113.674;2022-07-03T13:19:15;93834.63;;;8.44;100.00
64687;BME280;51113;53.646;-113.674;2022-07-03T13:21:45;93833.38;;;8.58;100.00
64687;BME280;51113;53.646;-113.674;2022-07-03T13:24:15;93835.00;;;8.70;100.00
64687;BME280;51113;53.646;-113.674;2022-07-03T13:26:45;93838.34;;;8.78;100.00
64687;BME280;51113;53.646;-113.674;2022-07-03T13:29:19;93853.44;;;8.89;100.00
64687;BME280;51113;53.646;-113.674;2022-07-03T13:31:48;93839.25;;;8.95;100.00
64687;BME280;51113;53.646;-113.674;2022-07-03T13:34:18;93845.25;;;9.02;100.00
64687;BME280;51113;53.646;-113.674;2022-07-03T13:36:46;93837.28;;;9.14;100.00
64687;BME280;51113;53.646;-113.674;2022-07-03T13:39:17;93841.44;;;9.33;100.00
64687;BME280;51113;53.646;-113.674;2022-07-03T13:41:47;93843.59;;;9.48;100.00
64687;BME280;51113;53.646;-113.674;2022-07-03T13:44:15;93852.66;;;9.63;100.00
64687;BME280;51113;53.646;-113.674;2022-07-03T13:46:48;93857.38;;;9.73;98.56
64687;BME280;51113;53.646;-113.674;2022-07-03T13:49:17;93859.19;;;9.84;98.18
64687;BME280;51113;53.646;-113.674;2022-07-03T13:51:47;93860.66;;;9.92;98.57
64687;BME280;51113;53.646;-113.674;2022-07-03T13:54:16;93865.81;;;9.98;98.64
64687;BME280;51113;53.646;-113.674;2022-07-03T13:56:46;93860.88;;;10.19;97.12
64687;BME280;51113;53.646;-113.674;2022-07-03T13:59:15;93870.13;;;10.28;96.07
64687;BME280;51113;53.646;-113.674;2022-07-03T14:01:44;93871.81;;;10.34;94.30
64687;BME280;51113;53.646;-113.674;2022-07-03T14:04:13;93874.28;;;10.52;93.02
64687;BME280;51113;53.646;-113.674;2022-07-03T14:06:41;93878.16;;;10.61;92.39
64687;BME280;51113;53.646;-113.674;2022-07-03T14:09:11;93872.38;;;10.65;91.11
64687;BME280;51113;53.646;-113.674;2022-07-03T14:11:40;93875.28;;;10.80;89.72
64687;BME280;51113;53.646;-113.674;2022-07-03T14:14:09;93872.78;;;10.90;89.66
64687;BME280;51113;53.646;-113.674;2022-07-03T14:16:37;93872.31;;;10.93;90.48
64687;BME280;51113;53.646;-113.674;2022-07-03T14:19:06;93876.56;;;10.94;91.03
64687;BME280;51113;53.646;-113.674;2022-07-03T14:21:35;93875.75;;;11.10;90.94
64687;BME280;51113;53.646;-113.674;2022-07-03T14:24:05;93882.84;;;11.21;89.42
64687;BME280;51113;53.646;-113.674;2022-07-03T14:26:34;93876.63;;;11.33;86.65
64687;BME280;51113;53.646;-113.674;2022-07-03T14:29:21;93882.81;;;11.38;86.22
64687;BME280;51113;53.646;-113.674;2022-07-03T14:32:09;93887.31;;;11.76;79.71